sensor_id;sensor_type;location;lat;lon;timestamp;pressure;altitude;pressure_sealevel;temperature;humidity
44872;BME280;30602;51.060;17.226;2023-02-21T00:02:49;100958.97;;;9.33;77.08
44872;BME280;30602;51.060;17.226;2023-02-21T00:06:38;100956.53;;;9.31;77.26
44872;BME280;30602;51.060;17.226;2023-02-21T00:14:27;100955.66;;;9.29;77.87
44872;BME280;30602;51.060;17.226;2023-02-21T00:22:10;100955.94;;;9.23;78.45
44872;BME280;30602;51.060;17.226;2023-02-21T00:25:31;100951.59;;;9.23;78.70
44872;BME280;30602;51.060;17.226;2023-02-21T00:29:16;100959.47;;;9.18;78.94
44872;BME280;30602;51.060;17.226;2023-02-21T00:33:06;100953.30;;;9.22;79.02
44872;BME280;30602;51.060;17.226;2023-02-21T00:36:31;100950.99;;;9.26;78.97
44872;BME280;30602;51.060;17.226;2023-02-21T00:39:50;100949.61;;;9.29;79.01
44872;BME280;30602;51.060;17.226;2023-02-21T00:43:40;100945.43;;;9.28;79.23
44872;BME280;30602;51.060;17.226;2023-02-21T00:47:14;100943.64;;;9.27;79.17
44872;BME280;30602;51.060;17.226;2023-02-21T00:52:04;100946.80;;;9.22;79.62
44872;BME280;30602;51.060;17.226;2023-02-21T00:56:29;100939.83;;;9.20;79.98
44872;BME280;30602;51.060;17.226;2023-02-21T00:59:51;100943.51;;;9.19;80.36
44872;BME280;30602;51.060;17.226;2023-02-21T01:03:33;100942.26;;;9.17;80.55
44872;BME280;30602;51.060;17.226;2023-02-21T01:07:31;100937.74;;;9.17;80.89
44872;BME280;30602;51.060;17.226;2023-02-21T01:11:17;100940.26;;;9.16;81.31
44872;BME280;30602;51.060;17.226;2023-02-21T01:15:13;100926.17;;;9.26;81.20
44872;BME280;30602;51.060;17.226;2023-02-21T01:19:26;100928.09;;;9.24;81.58
44872;BME280;30602;51.060;17.226;2023-02-21T01:23:43;100920.62;;;9.23;81.91
44872;BME280;30602;51.060;17.226;2023-02-21T01:27:24;100926.56;;;9.20;82.30
44872;BME280;30602;51.060;17.226;2023-02-21T01:31:31;100923.31;;;9.14;82.73
44872;BME280;30602;51.060;17.226;2023-02-21T01:34:55;100927.52;;;9.10;83.02
44872;BME280;30602;51.060;17.226;2023-02-21T01:43:00;100924.61;;;9.12;83.42
44872;BME280;30602;51.060;17.226;2023-02-21T01:47:14;100936.91;;;9.06;84.01
44872;BME280;30602;51.060;17.226;2023-02-21T01:50:35;100939.17;;;9.06;84.40
44872;BME280;30602;51.060;17.226;2023-02-21T01:54:20;100944.05;;;9.06;85.01
44872;BME280;30602;51.060;17.226;2023-02-21T01:58:46;100927.90;;;9.05;85.36
44872;BME280;30602;51.060;17.226;2023-02-21T02:02:21;100914.19;;;8.98;85.72
44872;BME280;30602;51.060;17.226;2023-02-21T02:06:03;100914.35;;;8.96;86.06
44872;BME280;30602;51.060;17.226;2023-02-21T02:10:28;100932.20;;;8.93;86.68
44872;BME280;30602;51.060;17.226;2023-02-21T02:33:29;100905.21;;;8.91;87.16
44872;BME280;30602;51.060;17.226;2023-02-21T02:50:09;100910.20;;;8.79;87.71
44872;BME280;30602;51.060;17.226;2023-02-21T02:54:03;100924.76;;;8.80;87.62
44872;BME280;30602;51.060;17.226;2023-02-21T02:57:12;100915.72;;;8.81;87.71
44872;BME280;30602;51.060;17.226;2023-02-21T03:09:00;100927.50;;;8.83;87.78
44872;BME280;30602;51.060;17.226;2023-02-21T03:16:51;100920.16;;;8.88;87.42
44872;BME280;30602;51.060;17.226;2023-02-21T03:20:26;100918.14;;;8.84;87.52
44872;BME280;30602;51.060;17.226;2023-02-21T03:24:30;100921.63;;;8.84;87.87
44872;BME280;30602;51.060;17.226;2023-02-21T03:28:14;100912.73;;;8.83;87.76
44872;BME280;30602;51.060;17.226;2023-02-21T03:31:39;100910.00;;;8.83;87.91
44872;BME280;30602;51.060;17.226;2023-02-21T03:35:13;100902.95;;;8.81;87.94
44872;BME280;30602;51.060;17.226;2023-02-21T03:38:48;100911.49;;;8.77;88.27
44872;BME280;30602;51.060;17.226;2023-02-21T03:42:41;100905.79;;;8.76;88.52
44872;BME280;30602;51.060;17.226;2023-02-21T03:46:46;100901.26;;;8.81;88.62
44872;BME280;30602;51.060;17.226;2023-02-21T03:51:37;100899.38;;;8.95;88.22
44872;BME280;30602;51.060;17.226;2023-02-21T03:55:08;100891.85;;;8.91;88.01
44872;BME280;30602;51.060;17.226;2023-02-21T03:58:40;100894.14;;;8.87;88.31
44872;BME280;30602;51.060;17.226;2023-02-21T04:02:09;100899.41;;;8.83;88.62
44872;BME280;30602;51.060;17.226;2023-02-21T04:06:03;100894.46;;;8.85;88.59
44872;BME280;30602;51.060;17.226;2023-02-21T04:09:14;100893.15;;;8.82;88.90
44872;BME280;30602;51.060;17.226;2023-02-21T04:12:42;100886.41;;;8.79;89.26
44872;BME280;30602;51.060;17.226;2023-02-21T04:16:17;100894.20;;;8.80;89.39
44872;BME280;30602;51.060;17.226;2023-02-21T04:19:25;100898.09;;;8.82;89.41
44872;BME280;30602;51.060;17.226;2023-02-21T04:23:10;100902.35;;;8.80;89.54
44872;BME280;30602;51.060;17.226;2023-02-21T04:27:16;100895.86;;;8.91;89.07
44872;BME280;30602;51.060;17.226;2023-02-21T04:30:46;100890.55;;;8.93;88.86
44872;BME280;30602;51.060;17.226;2023-02-21T04:34:16;100904.39;;;8.94;88.69
44872;BME280;30602;51.060;17.226;2023-02-21T04:37:46;100889.60;;;8.91;88.56
44872;BME280;30602;51.060;17.226;2023-02-21T04:45:28;100899.09;;;8.93;88.38
44872;BME280;30602;51.060;17.226;2023-02-21T04:48:38;100896.55;;;8.94;88.35
44872;BME280;30602;51.060;17.226;2023-02-21T04:52:41;100898.27;;;8.92;88.33
44872;BME280;30602;51.060;17.226;2023-02-21T04:56:15;100896.00;;;8.94;88.31
44872;BME280;30602;51.060;17.226;2023-02-21T05:00:12;100884.86;;;8.91;88.98
44872;BME280;30602;51.060;17.226;2023-02-21T05:04:04;100891.79;;;8.98;89.12
44872;BME280;30602;51.060;17.226;2023-02-21T05:07:26;100895.55;;;8.99;89.38
44872;BME280;30602;51.060;17.226;2023-02-21T05:10:49;100896.55;;;8.96;90.39
44872;BME280;30602;51.060;17.226;2023-02-21T05:14:28;100903.63;;;8.87;91.49
44872;BME280;30602;51.060;17.226;2023-02-21T05:18:22;100898.17;;;8.80;92.39
44872;BME280;30602;51.060;17.226;2023-02-21T05:21:36;100906.63;;;8.76;93.28
44872;BME280;30602;51.060;17.226;2023-02-21T05:24:50;100907.09;;;8.71;94.29
44872;BME280;30602;51.060;17.226;2023-02-21T05:29:04;100901.12;;;8.67;94.82
44872;BME280;30602;51.060;17.226;2023-02-21T05:33:15;100899.47;;;8.61;95.65
44872;BME280;30602;51.060;17.226;2023-02-21T05:37:19;100899.15;;;8.55;96.18
44872;BME280;30602;51.060;17.226;2023-02-21T05:41:09;100904.88;;;8.55;96.06
44872;BME280;30602;51.060;17.226;2023-02-21T05:44:52;100905.20;;;8.63;95.91
44872;BME280;30602;51.060;17.226;2023-02-21T05:48:09;100904.66;;;8.66;95.02
44872;BME280;30602;51.060;17.226;2023-02-21T05:51:18;100893.33;;;8.63;94.76
44872;BME280;30602;51.060;17.226;2023-02-21T05:55:13;100902.04;;;8.63;94.46
44872;BME280;30602;51.060;17.226;2023-02-21T05:58:55;100902.60;;;8.65;93.95
44872;BME280;30602;51.060;17.226;2023-02-21T06:02:54;100916.58;;;8.71;93.35
44872;BME280;30602;51.060;17.226;2023-02-21T06:06:06;100920.79;;;8.70;92.84
44872;BME280;30602;51.060;17.226;2023-02-21T06:09:18;100924.77;;;8.74;92.77
44872;BME280;30602;51.060;17.226;2023-02-21T06:13:01;100926.88;;;8.74;92.80
44872;BME280;30602;51.060;17.226;2023-02-21T06:17:04;100930.80;;;8.76;92.97
44872;BME280;30602;51.060;17.226;2023-02-21T06:20:14;100934.06;;;8.77;92.88
44872;BME280;30602;51.060;17.226;2023-02-21T06:23:22;100950.82;;;8.80;92.97
44872;BME280;30602;51.060;17.226;2023-02-21T06:27:17;100951.01;;;8.83;93.25
44872;BME280;30602;51.060;17.226;2023-02-21T06:31:12;100957.37;;;8.86;93.44
44872;BME280;30602;51.060;17.226;2023-02-21T06:34:43;100960.74;;;8.86;93.70
44872;BME280;30602;51.060;17.226;2023-02-21T06:37:56;100964.16;;;8.85;94.09
44872;BME280;30602;51.060;17.226;2023-02-21T06:41:07;100976.37;;;8.79;94.64
44872;BME280;30602;51.060;17.226;2023-02-21T06:45:03;100975.77;;;8.77;95.11
44872;BME280;30602;51.060;17.226;2023-02-21T06:48:36;100979.14;;;8.77;95.30
44872;BME280;30602;51.060;17.226;2023-02-21T06:52:10;100977.61;;;8.79;95.56
44872;BME280;30602;51.060;17.226;2023-02-21T06:55:33;100985.38;;;8.79;95.90
44872;BME280;30602;51.060;17.226;2023-02-21T06:58:45;100978.01;;;8.79;96.20
44872;BME280;30602;51.060;17.226;2023-02-21T07:01:58;100977.80;;;8.80;96.59
44872;BME280;30602;51.060;17.226;2023-02-21T07:09:05;100984.22;;;8.88;95.30
44872;BME280;30602;51.060;17.226;2023-02-21T07:12:18;100990.36;;;8.88;95.43
44872;BME280;30602;51.060;17.226;2023-02-21T07:15:50;100981.48;;;8.91;95.29
44872;BME280;30602;51.060;17.226;2023-02-21T07:19:03;100988.40;;;8.94;95.15
44872;BME280;30602;51.060;17.226;2023-02-21T07:22:44;101003.91;;;8.88;95.24
44872;BME280;30602;51.060;17.226;2023-02-21T07:25:51;101001.16;;;8.94;94.93
44872;BME280;30602;51.060;17.226;2023-02-21T07:29:35;101013.39;;;8.96;94.95
44872;BME280;30602;51.060;17.226;2023-02-21T07:32:44;101002.23;;;8.98;94.65
44872;BME280;30602;51.060;17.226;2023-02-21T07:36:05;101004.79;;;9.03;94.52
44872;BME280;30602;51.060;17.226;2023-02-21T07:40:03;101009.87;;;9.12;94.11
44872;BME280;30602;51.060;17.226;2023-02-21T07:43:46;101011.38;;;9.21;93.35
44872;BME280;30602;51.060;17.226;2023-02-21T07:47:43;101015.95;;;9.32;93.43
44872;BME280;30602;51.060;17.226;2023-02-21T07:51:40;101024.06;;;9.26;94.89
44872;BME280;30602;51.060;17.226;2023-02-21T07:54:50;101032.50;;;9.20;96.07
44872;BME280;30602;51.060;17.226;2023-02-21T07:58:18;101030.84;;;9.08;96.73
44872;BME280;30602;51.060;17.226;2023-02-21T08:02:48;101035.79;;;9.04;96.94
44872;BME280;30602;51.060;17.226;2023-02-21T08:06:35;101043.65;;;9.05;96.00
44872;BME280;30602;51.060;17.226;2023-02-21T08:10:21;101045.97;;;9.07;95.98
44872;BME280;30602;51.060;17.226;2023-02-21T08:13:33;101043.62;;;9.05;95.51
44872;BME280;30602;51.060;17.226;2023-02-21T08:21:10;101038.85;;;9.24;93.60
44872;BME280;30602;51.060;17.226;2023-02-21T08:29:11;101044.43;;;9.39;92.29
44872;BME280;30602;51.060;17.226;2023-02-21T08:32:58;101041.77;;;9.38;92.23
44872;BME280;30602;51.060;17.226;2023-02-21T08:37:15;101035.01;;;9.39;92.34
44872;BME280;30602;51.060;17.226;2023-02-21T08:41:18;101042.80;;;9.49;93.15
44872;BME280;30602;51.060;17.226;2023-02-21T08:44:48;101049.88;;;9.41;94.95
44872;BME280;30602;51.060;17.226;2023-02-21T08:48:08;101049.84;;;9.25;96.74
44872;BME280;30602;51.060;17.226;2023-02-21T08:51:52;101049.83;;;9.21;98.38
44872;BME280;30602;51.060;17.226;2023-02-21T08:55:15;101051.54;;;9.17;98.31
44872;BME280;30602;51.060;17.226;2023-02-21T08:58:24;101051.95;;;9.31;97.81
44872;BME280;30602;51.060;17.226;2023-02-21T09:01:42;101051.06;;;9.43;96.84
44872;BME280;30602;51.060;17.226;2023-02-21T09:05:35;101040.25;;;9.57;95.66
44872;BME280;30602;51.060;17.226;2023-02-21T09:09:25;101054.58;;;9.72;93.64
44872;BME280;30602;51.060;17.226;2023-02-21T09:12:36;101047.00;;;9.73;92.70
44872;BME280;30602;51.060;17.226;2023-02-21T09:16:19;101053.08;;;9.69;93.24
44872;BME280;30602;51.060;17.226;2023-02-21T09:19:35;101057.18;;;9.68;94.90
44872;BME280;30602;51.060;17.226;2023-02-21T09:22:44;101071.04;;;9.58;95.33
44872;BME280;30602;51.060;17.226;2023-02-21T09:26:40;101059.38;;;9.55;96.41
44872;BME280;30602;51.060;17.226;2023-02-21T09:29:48;101063.29;;;9.53;94.77
44872;BME280;30602;51.060;17.226;2023-02-21T09:33:41;101062.22;;;9.61;94.81
44872;BME280;30602;51.060;17.226;2023-02-21T09:37:22;101062.56;;;9.75;93.62
44872;BME280;30602;51.060;17.226;2023-02-21T09:44:19;101070.37;;;9.96;91.94
44872;BME280;30602;51.060;17.226;2023-02-21T09:48:13;101084.82;;;9.98;89.49
44872;BME280;30602;51.060;17.226;2023-02-21T09:51:42;101081.05;;;10.02;89.17
44872;BME280;30602;51.060;17.226;2023-02-21T09:55:42;101084.13;;;10.08;89.22
44872;BME280;30602;51.060;17.226;2023-02-21T09:59:13;101105.46;;;10.09;87.61
44872;BME280;30602;51.060;17.226;2023-02-21T10:07:06;101101.94;;;10.07;86.23
44872;BME280;30602;51.060;17.226;2023-02-21T10:10:27;101109.23;;;10.09;83.77
44872;BME280;30602;51.060;17.226;2023-02-21T10:25:20;101103.59;;;10.42;82.42
44872;BME280;30602;51.060;17.226;2023-02-21T10:28:49;101111.74;;;10.63;78.95
44872;BME280;30602;51.060;17.226;2023-02-21T10:32:23;101107.91;;;10.60;78.54
44872;BME280;30602;51.060;17.226;2023-02-21T10:36:25;101106.16;;;10.57;78.67
44872;BME280;30602;51.060;17.226;2023-02-21T10:43:52;101123.39;;;10.59;78.08
44872;BME280;30602;51.060;17.226;2023-02-21T10:51:11;101133.87;;;10.64;78.36
44872;BME280;30602;51.060;17.226;2023-02-21T10:59:05;101127.11;;;10.74;78.45
44872;BME280;30602;51.060;17.226;2023-02-21T11:02:37;101130.91;;;10.61;78.88
44872;BME280;30602;51.060;17.226;2023-02-21T11:06:23;101139.45;;;10.44;83.61
44872;BME280;30602;51.060;17.226;2023-02-21T11:18:09;101148.93;;;10.18;91.90
44872;BME280;30602;51.060;17.226;2023-02-21T11:21:42;101155.88;;;10.02;91.60
44872;BME280;30602;51.060;17.226;2023-02-21T11:25:41;101153.21;;;9.98;92.29
44872;BME280;30602;51.060;17.226;2023-02-21T11:28:52;101162.33;;;10.10;91.74
44872;BME280;30602;51.060;17.226;2023-02-21T11:32:56;101158.75;;;10.19;91.82
44872;BME280;30602;51.060;17.226;2023-02-21T11:43:58;101146.24;;;10.41;88.53
44872;BME280;30602;51.060;17.226;2023-02-21T11:47:43;101148.28;;;10.45;88.17
44872;BME280;30602;51.060;17.226;2023-02-21T11:55:27;101149.00;;;10.59;84.97
44872;BME280;30602;51.060;17.226;2023-02-21T12:07:05;101134.36;;;10.68;78.86
44872;BME280;30602;51.060;17.226;2023-02-21T12:19:45;101153.53;;;10.41;81.52
44872;BME280;30602;51.060;17.226;2023-02-21T12:23:26;101157.80;;;10.27;83.55
44872;BME280;30602;51.060;17.226;2023-02-21T13:00:24;101142.57;;;10.64;76.44
44872;BME280;30602;51.060;17.226;2023-02-21T13:08:01;101143.84;;;10.71;75.07
44872;BME280;30602;51.060;17.226;2023-02-21T13:16:30;101125.66;;;10.74;71.29
44872;BME280;30602;51.060;17.226;2023-02-21T13:20:43;101132.99;;;10.91;68.21
44872;BME280;30602;51.060;17.226;2023-02-21T13:24:23;101143.74;;;10.97;68.16
44872;BME280;30602;51.060;17.226;2023-02-21T13:28:23;101147.90;;;10.95;69.63
44872;BME280;30602;51.060;17.226;2023-02-21T13:32:19;101139.07;;;10.90;68.59
44872;BME280;30602;51.060;17.226;2023-02-21T13:35:49;101140.22;;;10.82;69.02
44872;BME280;30602;51.060;17.226;2023-02-21T13:39:55;101142.42;;;10.82;70.71
44872;BME280;30602;51.060;17.226;2023-02-21T13:43:25;101144.61;;;10.85;70.25
44872;BME280;30602;51.060;17.226;2023-02-21T13:47:09;101139.65;;;10.91;70.52
44872;BME280;30602;51.060;17.226;2023-02-21T13:50:55;101145.71;;;11.03;70.84
44872;BME280;30602;51.060;17.226;2023-02-21T14:06:21;101139.59;;;10.89;71.96
44872;BME280;30602;51.060;17.226;2023-02-21T14:09:28;101149.64;;;10.93;72.19
44872;BME280;30602;51.060;17.226;2023-02-21T14:12:52;101136.80;;;10.95;71.77
44872;BME280;30602;51.060;17.226;2023-02-21T14:16:17;101135.17;;;11.07;71.33
44872;BME280;30602;51.060;17.226;2023-02-21T14:20:03;101141.52;;;11.09;70.54
44872;BME280;30602;51.060;17.226;2023-02-21T14:23:41;101138.65;;;11.06;70.43
44872;BME280;30602;51.060;17.226;2023-02-21T14:31:04;101146.42;;;11.11;69.86
44872;BME280;30602;51.060;17.226;2023-02-21T14:38:27;101158.38;;;11.00;70.06
44872;BME280;30602;51.060;17.226;2023-02-21T14:50:42;101167.44;;;10.79;71.78
44872;BME280;30602;51.060;17.226;2023-02-21T14:58:05;101176.67;;;10.72;72.91
44872;BME280;30602;51.060;17.226;2023-02-21T15:01:40;101177.74;;;10.73;73.31
44872;BME280;30602;51.060;17.226;2023-02-21T15:05:22;101176.63;;;10.73;73.48
44872;BME280;30602;51.060;17.226;2023-02-21T15:09:16;101166.74;;;10.64;73.56
44872;BME280;30602;51.060;17.226;2023-02-21T15:12:49;101174.26;;;10.70;73.60
44872;BME280;30602;51.060;17.226;2023-02-21T15:16:15;101179.18;;;10.57;73.17
44872;BME280;30602;51.060;17.226;2023-02-21T15:19:45;101179.74;;;10.52;72.39
44872;BME280;30602;51.060;17.226;2023-02-21T15:26:27;101174.52;;;10.47;71.86
44872;BME280;30602;51.060;17.226;2023-02-21T15:33:25;101193.13;;;10.39;70.44
44872;BME280;30602;51.060;17.226;2023-02-21T15:37:29;101196.27;;;10.50;70.49
44872;BME280;30602;51.060;17.226;2023-02-21T15:45:06;101201.08;;;10.53;69.81
44872;BME280;30602;51.060;17.226;2023-02-21T15:49:24;101204.18;;;10.51;70.25
44872;BME280;30602;51.060;17.226;2023-02-21T15:52:49;101204.18;;;10.47;70.39
44872;BME280;30602;51.060;17.226;2023-02-21T15:56:15;101211.57;;;10.41;70.96
44872;BME280;30602;51.060;17.226;2023-02-21T15:59:30;101208.94;;;10.34;71.13
44872;BME280;30602;51.060;17.226;2023-02-21T16:07:27;101220.27;;;10.28;72.25
44872;BME280;30602;51.060;17.226;2023-02-21T16:11:11;101224.16;;;10.28;72.92
44872;BME280;30602;51.060;17.226;2023-02-21T16:14:56;101226.94;;;10.31;73.74
44872;BME280;30602;51.060;17.226;2023-02-21T16:18:21;101233.59;;;10.36;74.12
44872;BME280;30602;51.060;17.226;2023-02-21T16:29:12;101256.00;;;10.04;70.97
44872;BME280;30602;51.060;17.226;2023-02-21T16:32:25;101264.80;;;9.94;70.59
44872;BME280;30602;51.060;17.226;2023-02-21T16:36:23;101269.49;;;9.83;71.19
44872;BME280;30602;51.060;17.226;2023-02-21T16:40:10;101277.24;;;9.70;71.44
44872;BME280;30602;51.060;17.226;2023-02-21T16:43:29;101290.41;;;9.55;71.50
44872;BME280;30602;51.060;17.226;2023-02-21T16:47:16;101297.73;;;9.47;71.82
44872;BME280;30602;51.060;17.226;2023-02-21T16:51:25;101302.50;;;9.49;71.46
44872;BME280;30602;51.060;17.226;2023-02-21T16:55:14;101306.84;;;9.47;70.98
44872;BME280;30602;51.060;17.226;2023-02-21T16:59:35;101315.41;;;9.42;71.18
44872;BME280;30602;51.060;17.226;2023-02-21T17:02:51;101321.93;;;9.41;70.59
44872;BME280;30602;51.060;17.226;2023-02-21T17:06:54;101327.75;;;9.38;70.30
44872;BME280;30602;51.060;17.226;2023-02-21T17:10:52;101338.15;;;9.39;70.25
44872;BME280;30602;51.060;17.226;2023-02-21T17:14:54;101356.88;;;9.33;70.61
44872;BME280;30602;51.060;17.226;2023-02-21T17:18:27;101360.80;;;9.27;70.93
44872;BME280;30602;51.060;17.226;2023-02-21T17:22:01;101366.05;;;9.24;69.66
44872;BME280;30602;51.060;17.226;2023-02-21T17:25:25;101370.24;;;9.30;69.26
44872;BME280;30602;51.060;17.226;2023-02-21T17:29:20;101373.13;;;9.26;68.70
44872;BME280;30602;51.060;17.226;2023-02-21T17:32:34;101378.48;;;9.15;69.85
44872;BME280;30602;51.060;17.226;2023-02-21T17:35:58;101373.61;;;9.05;69.79
44872;BME280;30602;51.060;17.226;2023-02-21T17:44:43;101390.88;;;8.93;70.31
44872;BME280;30602;51.060;17.226;2023-02-21T17:48:10;101393.39;;;8.85;70.45
44872;BME280;30602;51.060;17.226;2023-02-21T17:52:58;101395.97;;;8.69;70.62
44872;BME280;30602;51.060;17.226;2023-02-21T17:56:58;101405.41;;;8.69;70.43
44872;BME280;30602;51.060;17.226;2023-02-21T18:01:08;101406.09;;;8.67;70.18
44872;BME280;30602;51.060;17.226;2023-02-21T18:04:30;101410.11;;;8.71;70.51
44872;BME280;30602;51.060;17.226;2023-02-21T18:07:53;101407.05;;;8.72;70.15
44872;BME280;30602;51.060;17.226;2023-02-21T18:11:34;101410.53;;;8.68;70.77
44872;BME280;30602;51.060;17.226;2023-02-21T18:15:40;101406.37;;;8.60;70.55
44872;BME280;30602;51.060;17.226;2023-02-21T18:18:55;101413.89;;;8.48;70.87
44872;BME280;30602;51.060;17.226;2023-02-21T18:23:32;101415.95;;;8.41;71.34
44872;BME280;30602;51.060;17.226;2023-02-21T18:27:39;101422.06;;;8.40;71.60
44872;BME280;30602;51.060;17.226;2023-02-21T18:31:25;101426.24;;;8.31;72.28
44872;BME280;30602;51.060;17.226;2023-02-21T18:35:29;101427.90;;;8.21;72.91
44872;BME280;30602;51.060;17.226;2023-02-21T18:39:01;101425.39;;;8.17;72.96
44872;BME280;30602;51.060;17.226;2023-02-21T18:42:17;101431.90;;;8.12;72.96
44872;BME280;30602;51.060;17.226;2023-02-21T18:45:40;101435.45;;;8.11;72.97
44872;BME280;30602;51.060;17.226;2023-02-21T18:49:21;101433.28;;;8.09;72.65
44872;BME280;30602;51.060;17.226;2023-02-21T18:52:52;101436.23;;;8.02;72.63
44872;BME280;30602;51.060;17.226;2023-02-21T18:56:48;101438.60;;;7.95;72.71
44872;BME280;30602;51.060;17.226;2023-02-21T19:00:36;101431.09;;;7.90;72.88
44872;BME280;30602;51.060;17.226;2023-02-21T19:04:24;101442.92;;;7.90;72.67
44872;BME280;30602;51.060;17.226;2023-02-21T19:07:58;101446.91;;;7.87;72.65
44872;BME280;30602;51.060;17.226;2023-02-21T19:11:12;101447.23;;;7.87;72.55
44872;BME280;30602;51.060;17.226;2023-02-21T19:15:11;101455.12;;;7.83;72.51
44872;BME280;30602;51.060;17.226;2023-02-21T19:18:57;101451.52;;;7.77;72.59
44872;BME280;30602;51.060;17.226;2023-02-21T19:22:42;101456.02;;;7.83;72.18
44872;BME280;30602;51.060;17.226;2023-02-21T19:26:45;101465.98;;;7.90;71.14
44872;BME280;30602;51.060;17.226;2023-02-21T19:31:09;101469.80;;;7.92;71.42
44872;BME280;30602;51.060;17.226;2023-02-21T19:35:09;101470.59;;;7.89;71.12
44872;BME280;30602;51.060;17.226;2023-02-21T19:38:53;101475.53;;;7.91;70.38
44872;BME280;30602;51.060;17.226;2023-02-21T19:42:37;101484.87;;;7.85;69.75
44872;BME280;30602;51.060;17.226;2023-02-21T19:45:51;101486.08;;;7.85;69.76
44872;BME280;30602;51.060;17.226;2023-02-21T19:49:39;101487.13;;;7.79;68.94
44872;BME280;30602;51.060;17.226;2023-02-21T19:53:34;101485.16;;;7.79;68.80
44872;BME280;30602;51.060;17.226;2023-02-21T19:57:22;101489.16;;;7.79;68.46
44872;BME280;30602;51.060;17.226;2023-02-21T20:00:48;101489.12;;;7.80;68.38
44872;BME280;30602;51.060;17.226;2023-02-21T20:04:36;101486.28;;;7.90;68.07
44872;BME280;30602;51.060;17.226;2023-02-21T20:08:19;101486.85;;;7.94;68.02
44872;BME280;30602;51.060;17.226;2023-02-21T20:16:17;101499.10;;;7.86;68.20
44872;BME280;30602;51.060;17.226;2023-02-21T20:20:15;101504.13;;;7.78;68.14
44872;BME280;30602;51.060;17.226;2023-02-21T20:23:37;101508.51;;;7.77;68.47
44872;BME280;30602;51.060;17.226;2023-02-21T20:27:32;101493.98;;;7.62;68.66
44872;BME280;30602;51.060;17.226;2023-02-21T20:30:40;101507.98;;;7.71;68.70
44872;BME280;30602;51.060;17.226;2023-02-21T20:34:59;101510.02;;;7.66;68.97
44872;BME280;30602;51.060;17.226;2023-02-21T20:38:37;101514.84;;;7.63;69.26
44872;BME280;30602;51.060;17.226;2023-02-21T20:42:24;101516.41;;;7.67;68.96
44872;BME280;30602;51.060;17.226;2023-02-21T20:46:27;101519.49;;;7.72;69.04
44872;BME280;30602;51.060;17.226;2023-02-21T20:50:00;101524.38;;;7.68;69.24
44872;BME280;30602;51.060;17.226;2023-02-21T20:53:35;101532.34;;;7.65;69.13
44872;BME280;30602;51.060;17.226;2023-02-21T20:56:47;101532.97;;;7.67;69.43
44872;BME280;30602;51.060;17.226;2023-02-21T21:01:13;101506.77;;;7.39;69.70
44872;BME280;30602;51.060;17.226;2023-02-21T21:04:56;101535.01;;;7.58;69.84
44872;BME280;30602;51.060;17.226;2023-02-21T21:08:41;101531.27;;;7.55;69.99
44872;BME280;30602;51.060;17.226;2023-02-21T21:12:09;101533.15;;;7.51;70.19
44872;BME280;30602;51.060;17.226;2023-02-21T21:16:14;101531.20;;;7.50;70.39
44872;BME280;30602;51.060;17.226;2023-02-21T21:20:09;101533.71;;;7.45;70.63
44872;BME280;30602;51.060;17.226;2023-02-21T21:24:11;101532.63;;;7.44;70.91
44872;BME280;30602;51.060;17.226;2023-02-21T21:27:55;101538.69;;;7.47;70.69
44872;BME280;30602;51.060;17.226;2023-02-21T21:31:27;101538.84;;;7.46;70.99
44872;BME280;30602;51.060;17.226;2023-02-21T21:34:55;101548.34;;;7.46;70.66
44872;BME280;30602;51.060;17.226;2023-02-21T21:38:43;101545.37;;;7.45;70.46
44872;BME280;30602;51.060;17.226;2023-02-21T21:42:28;101539.86;;;7.33;70.45
44872;BME280;30602;51.060;17.226;2023-02-21T21:46:14;101560.57;;;7.34;70.56
44872;BME280;30602;51.060;17.226;2023-02-21T21:50:13;101556.88;;;7.29;70.77
44872;BME280;30602;51.060;17.226;2023-02-21T21:53:31;101557.37;;;7.25;70.90
44872;BME280;30602;51.060;17.226;2023-02-21T21:56:54;101558.12;;;7.22;71.06
44872;BME280;30602;51.060;17.226;2023-02-21T22:00:16;101560.02;;;7.16;71.27
44872;BME280;30602;51.060;17.226;2023-02-21T22:04:02;101568.08;;;7.15;71.49
44872;BME280;30602;51.060;17.226;2023-02-21T22:07:55;101567.84;;;7.22;71.43
44872;BME280;30602;51.060;17.226;2023-02-21T22:12:17;101567.77;;;7.19;71.43
44872;BME280;30602;51.060;17.226;2023-02-21T22:16:10;101572.97;;;7.23;71.35
44872;BME280;30602;51.060;17.226;2023-02-21T22:19:35;101571.27;;;7.16;71.80
44872;BME280;30602;51.060;17.226;2023-02-21T22:23:41;101571.02;;;7.13;71.98
44872;BME280;30602;51.060;17.226;2023-02-21T22:27:34;101570.42;;;7.03;72.54
44872;BME280;30602;51.060;17.226;2023-02-21T22:31:20;101572.23;;;7.00;72.85
44872;BME280;30602;51.060;17.226;2023-02-21T22:39:08;101577.26;;;6.91;73.13
44872;BME280;30602;51.060;17.226;2023-02-21T22:43:35;101581.45;;;6.81;73.76
44872;BME280;30602;51.060;17.226;2023-02-21T22:47:28;101582.50;;;6.78;73.85
44872;BME280;30602;51.060;17.226;2023-02-21T22:51:12;101579.34;;;6.78;73.89
44872;BME280;30602;51.060;17.226;2023-02-21T22:55:07;101580.48;;;6.74;74.24
44872;BME280;30602;51.060;17.226;2023-02-21T22:58:55;101584.12;;;6.66;74.77
44872;BME280;30602;51.060;17.226;2023-02-21T23:02:49;101586.37;;;6.71;74.59
44872;BME280;30602;51.060;17.226;2023-02-21T23:06:35;101585.55;;;6.63;75.01
44872;BME280;30602;51.060;17.226;2023-02-21T23:10:36;101583.37;;;6.56;75.36
44872;BME280;30602;51.060;17.226;2023-02-21T23:14:24;101582.78;;;6.51;75.91
44872;BME280;30602;51.060;17.226;2023-02-21T23:18:20;101587.00;;;6.47;76.18
44872;BME280;30602;51.060;17.226;2023-02-21T23:21:51;101586.45;;;6.40;76.75
44872;BME280;30602;51.060;17.226;2023-02-21T23:26:04;101596.48;;;6.36;77.10